createdAt,value
2019-01-23T00:00:45.683Z,36.73
2019-01-23T00:03:12.963Z,39.87
2019-01-23T00:05:40.462Z,48.17
2019-01-23T00:08:07.807Z,39.17
2019-01-23T00:10:35.069Z,41.23
2019-01-23T00:13:03.532Z,36.43
2019-01-23T00:15:30.946Z,42.60
2019-01-23T00:17:58.175Z,41.90
2019-01-23T00:20:25.419Z,41.97
2019-01-23T00:22:52.639Z,37.87
2019-01-23T00:25:19.942Z,37.70
2019-01-23T00:27:47.784Z,40.73
2019-01-23T00:30:15.156Z,38.43
2019-01-23T00:32:42.387Z,35.73
2019-01-23T00:35:09.771Z,34.73
2019-01-23T00:37:37.497Z,39.47
2019-01-23T00:40:05.582Z,39.57
2019-01-23T00:42:32.808Z,40.73
2019-01-23T00:45:00.271Z,35.37
2019-01-23T00:47:27.562Z,34.17
2019-01-23T00:49:54.824Z,39.30
2019-01-23T00:52:22.079Z,36.80
2019-01-23T00:54:49.335Z,35.00
2019-01-23T00:57:16.583Z,37.40
2019-01-23T00:59:43.848Z,36.30
2019-01-23T01:02:11.079Z,33.70
2019-01-23T01:04:38.334Z,33.23
2019-01-23T01:07:05.597Z,31.43
2019-01-23T01:09:32.920Z,32.70
2019-01-23T01:12:00.247Z,31.07
2019-01-23T01:14:27.557Z,35.47
2019-01-23T01:16:54.808Z,33.17
2019-01-23T01:19:22.036Z,32.10
2019-01-23T01:21:49.264Z,33.10
2019-01-23T01:24:16.517Z,32.90
2019-01-23T01:26:43.750Z,31.33
2019-01-23T01:29:11.019Z,34.60
2019-01-23T01:31:38.363Z,32.83
2019-01-23T01:34:05.600Z,32.67
2019-01-23T01:36:32.838Z,33.03
2019-01-23T01:39:00.068Z,34.37
2019-01-23T01:41:27.611Z,30.73
2019-01-23T01:43:54.885Z,31.10
2019-01-23T01:46:22.119Z,33.57
2019-01-23T01:48:49.356Z,32.37
2019-01-23T01:51:16.616Z,31.80
2019-01-23T01:53:43.847Z,32.57
2019-01-23T01:56:11.095Z,31.57
2019-01-23T01:58:38.338Z,31.73
2019-01-23T02:01:05.605Z,30.70
2019-01-23T02:03:32.835Z,30.63
2019-01-23T02:06:00.117Z,33.70
2019-01-23T02:08:27.347Z,32.50
2019-01-23T02:10:54.583Z,32.00
2019-01-23T02:13:21.832Z,31.80
2019-01-23T02:15:49.083Z,32.73
2019-01-23T02:18:16.311Z,32.40
2019-01-23T02:20:43.532Z,32.33
2019-01-23T02:23:11.051Z,31.37
2019-01-23T02:25:38.420Z,30.13
2019-01-23T02:28:05.794Z,29.00
2019-01-23T02:30:33.047Z,31.53
2019-01-23T02:33:00.368Z,31.40
2019-01-23T02:35:27.702Z,30.50
2019-01-23T02:37:55.037Z,30.50
2019-01-23T02:40:22.734Z,29.77
2019-01-23T02:42:50.026Z,29.37
2019-01-23T02:45:18.156Z,30.83
2019-01-23T02:47:45.431Z,29.57
2019-01-23T02:50:13.568Z,30.93
2019-01-23T02:52:40.808Z,29.10
2019-01-23T02:55:08.141Z,29.73
2019-01-23T02:57:35.406Z,28.07
2019-01-23T03:00:04.203Z,29.63
2019-01-23T03:02:31.516Z,30.53
2019-01-23T03:04:58.772Z,27.60
2019-01-23T03:07:26.044Z,28.50
2019-01-23T03:09:53.263Z,27.27
2019-01-23T03:12:20.536Z,26.27
2019-01-23T03:14:47.758Z,27.90
2019-01-23T03:17:15.064Z,26.97
2019-01-23T03:19:42.592Z,27.97
2019-01-23T03:22:09.829Z,27.70
2019-01-23T03:24:37.142Z,28.77
2019-01-23T03:27:04.359Z,28.40
2019-01-23T03:29:31.595Z,28.07
2019-01-23T03:31:58.852Z,27.23
2019-01-23T03:34:26.095Z,27.70
2019-01-23T03:36:53.408Z,27.77
2019-01-23T03:39:20.740Z,28.43
2019-01-23T03:41:48.043Z,27.07
2019-01-23T03:44:15.299Z,27.07
2019-01-23T03:46:42.656Z,27.73
2019-01-23T03:49:09.909Z,27.87
2019-01-23T03:51:37.224Z,28.83
2019-01-23T03:54:04.568Z,28.90
2019-01-23T03:56:31.799Z,29.10
2019-01-23T03:58:59.067Z,27.33
2019-01-23T04:01:26.579Z,26.43
2019-01-23T04:03:53.838Z,28.50
2019-01-23T04:06:22.399Z,27.03
2019-01-23T04:08:49.691Z,27.80
2019-01-23T04:11:16.916Z,28.33
2019-01-23T04:13:44.224Z,27.60
2019-01-23T04:16:11.565Z,29.60
2019-01-23T04:18:39.203Z,29.10
2019-01-23T04:21:06.892Z,27.57
2019-01-23T04:23:34.546Z,30.33
2019-01-23T04:26:02.313Z,26.87
2019-01-23T04:28:29.989Z,27.03
2019-01-23T04:30:57.617Z,29.13
2019-01-23T04:33:24.931Z,28.97
2019-01-23T04:35:52.195Z,30.03
2019-01-23T04:38:19.420Z,29.30
2019-01-23T04:41:06.160Z,28.13
2019-01-23T04:43:33.395Z,27.37
2019-01-23T04:46:00.640Z,28.23
2019-01-23T04:48:27.865Z,29.37
2019-01-23T04:51:16.591Z,29.73
2019-01-23T04:53:46.178Z,28.63
2019-01-23T04:56:13.413Z,29.67
2019-01-23T04:58:40.648Z,26.87
2019-01-23T05:01:07.879Z,28.60
2019-01-23T05:03:35.139Z,29.03
2019-01-23T05:06:02.510Z,27.40
2019-01-23T05:08:29.769Z,27.60
2019-01-23T05:10:57.099Z,30.20
2019-01-23T05:13:24.428Z,27.67
2019-01-23T05:15:51.661Z,27.93
2019-01-23T05:18:19.007Z,27.23
2019-01-23T05:20:46.242Z,29.27
2019-01-23T05:23:13.468Z,29.10
2019-01-23T05:25:40.719Z,33.37
2019-01-23T05:28:07.975Z,32.07
2019-01-23T05:30:35.235Z,35.10
2019-01-23T05:33:02.490Z,31.80
2019-01-23T05:35:29.897Z,27.97
2019-01-23T05:37:57.280Z,28.17
2019-01-23T05:40:24.577Z,30.33
2019-01-23T05:42:51.924Z,28.63
2019-01-23T05:45:19.256Z,32.27
2019-01-23T05:47:46.492Z,30.70
2019-01-23T05:50:14.672Z,29.93
2019-01-23T05:52:41.903Z,27.50
2019-01-23T05:55:10.180Z,27.07
2019-01-23T05:57:37.439Z,27.93
2019-01-23T06:00:06.537Z,29.43
2019-01-23T06:02:33.771Z,27.30
2019-01-23T06:05:01.020Z,29.10
2019-01-23T06:07:28.268Z,28.37
2019-01-23T06:09:55.530Z,28.23
2019-01-23T06:12:22.782Z,27.63
2019-01-23T06:14:50.044Z,31.73
2019-01-23T06:17:17.281Z,31.80
2019-01-23T06:19:44.533Z,30.83
2019-01-23T06:22:11.788Z,29.13
2019-01-23T06:24:39.131Z,27.77
2019-01-23T06:27:06.485Z,27.90
2019-01-23T06:29:33.739Z,29.87
2019-01-23T06:32:01.059Z,27.17
2019-01-23T06:34:28.299Z,28.80
2019-01-23T06:36:55.783Z,27.30
2019-01-23T06:39:23.014Z,33.37
2019-01-23T06:41:50.279Z,32.57
2019-01-23T06:44:17.524Z,31.83
2019-01-23T06:46:44.795Z,29.30
2019-01-23T06:49:12.028Z,28.80
2019-01-23T06:51:39.289Z,28.93
2019-01-23T06:54:06.515Z,29.20
2019-01-23T06:56:33.739Z,28.57
2019-01-23T06:59:01.046Z,29.33
2019-01-23T07:01:28.282Z,29.50
2019-01-23T07:03:55.710Z,30.00
2019-01-23T07:06:23.431Z,29.10
2019-01-23T07:08:50.704Z,32.33
2019-01-23T07:11:17.980Z,31.13
2019-01-23T07:13:45.262Z,29.30
2019-01-23T07:16:12.491Z,28.50
2019-01-23T07:18:39.733Z,29.87
2019-01-23T07:21:07.127Z,30.87
2019-01-23T07:23:34.383Z,28.10
2019-01-23T07:26:01.660Z,40.17
2019-01-23T07:28:28.883Z,37.70
2019-01-23T07:30:57.397Z,35.27
2019-01-23T07:33:24.710Z,35.10
2019-01-23T07:35:51.961Z,34.67
2019-01-23T07:38:19.306Z,39.93
2019-01-23T07:40:46.643Z,41.17
2019-01-23T07:43:13.894Z,37.60
2019-01-23T07:45:41.188Z,30.70
2019-01-23T07:48:08.387Z,32.80
2019-01-23T07:50:35.750Z,32.27
2019-01-23T07:53:03.637Z,38.37
2019-01-23T07:55:30.900Z,35.83
2019-01-23T07:57:58.126Z,32.70
2019-01-23T08:00:31.261Z,30.47
2019-01-23T08:02:55.266Z,32.03
2019-01-23T08:05:23.421Z,33.33
2019-01-23T08:07:51.487Z,29.57
2019-01-23T08:10:19.591Z,33.50
2019-01-23T08:12:46.851Z,33.13
2019-01-23T08:15:15.402Z,33.60
2019-01-23T08:17:42.693Z,33.87
2019-01-23T08:20:11.051Z,33.90
2019-01-23T08:22:38.247Z,37.03
2019-01-23T08:25:07.462Z,52.67
2019-01-23T08:27:34.919Z,48.03
2019-01-23T08:30:02.232Z,54.00
2019-01-23T08:32:29.508Z,46.50
2019-01-23T08:34:56.818Z,46.40
2019-01-23T08:37:24.063Z,44.10
2019-01-23T08:39:51.372Z,43.50
2019-01-23T08:42:18.665Z,38.37
2019-01-23T08:44:45.927Z,37.93
2019-01-23T08:47:13.131Z,31.43
2019-01-23T08:49:40.355Z,31.43
2019-01-23T08:52:07.627Z,32.57
2019-01-23T08:54:34.855Z,31.97
2019-01-23T08:57:02.093Z,31.43
2019-01-23T08:59:29.403Z,28.60
2019-01-23T09:01:56.650Z,30.40
2019-01-23T09:04:23.880Z,32.90
2019-01-23T09:06:51.097Z,31.17
2019-01-23T09:09:18.364Z,32.70
2019-01-23T09:11:45.615Z,31.27
2019-01-23T09:14:12.865Z,31.13
2019-01-23T09:16:40.250Z,28.50
2019-01-23T09:19:07.492Z,28.73
2019-01-23T09:21:34.763Z,29.07
2019-01-23T09:24:01.986Z,30.03
2019-01-23T09:26:29.235Z,29.83
2019-01-23T09:28:56.480Z,32.13
2019-01-23T09:31:52.520Z,34.03
2019-01-23T09:34:45.474Z,36.60
2019-01-23T09:37:32.439Z,39.93
2019-01-23T09:40:09.441Z,33.53
2019-01-23T09:42:59.190Z,35.43
2019-01-23T09:46:04.055Z,38.93
2019-01-23T09:48:49.512Z,39.40
2019-01-23T09:51:36.130Z,47.70
2019-01-23T09:54:05.895Z,34.37
2019-01-23T09:56:33.221Z,32.53
2019-01-23T09:59:02.771Z,30.17
2019-01-23T10:01:29.655Z,36.17
2019-01-23T10:03:56.907Z,32.90
2019-01-23T10:06:24.163Z,29.47
2019-01-23T10:08:51.491Z,31.60
2019-01-23T10:11:18.739Z,42.00
2019-01-23T10:13:46.017Z,41.70
2019-01-23T10:16:14.362Z,35.93
2019-01-23T10:18:42.066Z,35.33
2019-01-23T10:21:09.539Z,30.23
2019-01-23T10:23:37.203Z,29.77
2019-01-23T10:26:06.790Z,28.60
2019-01-23T10:28:34.020Z,30.30
2019-01-23T10:31:06.604Z,29.20
2019-01-23T10:33:30.424Z,31.20
2019-01-23T10:35:57.662Z,29.73
2019-01-23T10:38:24.866Z,32.13
2019-01-23T10:40:52.203Z,31.97
2019-01-23T10:43:20.344Z,30.80
2019-01-23T10:45:47.576Z,29.90
2019-01-23T10:48:14.835Z,28.87
2019-01-23T10:50:42.172Z,31.17
2019-01-23T10:53:09.531Z,29.87
2019-01-23T10:55:36.775Z,29.13
2019-01-23T10:58:04.111Z,28.87
2019-01-23T11:00:31.911Z,29.90
2019-01-23T11:02:59.155Z,31.50
2019-01-23T11:05:26.683Z,81.20
2019-01-23T11:07:54.436Z,52.07
2019-01-23T11:10:22.740Z,34.03
2019-01-23T11:12:50.103Z,31.07
2019-01-23T11:15:17.534Z,32.13
2019-01-23T11:17:44.920Z,33.07
2019-01-23T11:20:14.283Z,30.77
2019-01-23T11:22:41.846Z,27.80
2019-01-23T11:25:10.143Z,28.77
2019-01-23T11:27:37.752Z,29.87
2019-01-23T11:30:08.137Z,29.13
2019-01-23T11:32:35.403Z,29.00
2019-01-23T11:35:03.473Z,30.13
2019-01-23T11:37:30.704Z,27.83
2019-01-23T11:39:57.938Z,28.10
2019-01-23T11:42:25.211Z,30.47
2019-01-23T11:44:52.451Z,30.97
2019-01-23T11:47:19.963Z,32.03
2019-01-23T11:49:47.572Z,30.50
2019-01-23T11:52:15.151Z,29.10
2019-01-23T11:54:42.564Z,31.00
2019-01-23T11:57:09.819Z,31.67
2019-01-23T11:59:37.424Z,30.57
2019-01-23T12:02:04.980Z,32.10
2019-01-23T12:04:32.232Z,31.57
2019-01-23T12:06:59.467Z,34.73
2019-01-23T12:09:26.734Z,34.83
2019-01-23T12:11:54.063Z,39.43
2019-01-23T12:14:21.310Z,42.67
2019-01-23T12:16:48.651Z,37.27
2019-01-23T12:19:15.970Z,38.97
2019-01-23T12:21:43.227Z,39.63
2019-01-23T12:24:10.471Z,36.80
2019-01-23T12:26:37.692Z,45.00
2019-01-23T12:29:05.083Z,42.20
2019-01-23T12:31:35.226Z,38.47
2019-01-23T12:34:01.549Z,37.97
2019-01-23T12:36:28.795Z,35.87
2019-01-23T12:38:56.148Z,36.63
2019-01-23T12:41:23.403Z,40.00
2019-01-23T12:43:50.663Z,36.40
2019-01-23T12:46:17.896Z,38.57
2019-01-23T12:48:45.146Z,34.70
2019-01-23T12:51:12.406Z,37.97
2019-01-23T12:53:39.652Z,33.90
2019-01-23T12:56:06.928Z,36.70
2019-01-23T12:58:53.910Z,34.63
2019-01-23T13:01:21.349Z,32.77
2019-01-23T13:03:48.622Z,34.03
2019-01-23T13:06:15.935Z,32.80
2019-01-23T13:08:43.179Z,36.23
2019-01-23T13:11:10.395Z,34.50
2019-01-23T13:13:37.631Z,36.27
2019-01-23T13:16:04.871Z,36.60
2019-01-23T13:18:32.177Z,35.13
2019-01-23T13:20:59.426Z,35.57
2019-01-23T13:23:27.071Z,35.93
2019-01-23T13:25:54.303Z,33.30
2019-01-23T13:28:21.727Z,34.00
2019-01-23T13:30:48.970Z,35.07
2019-01-23T13:33:16.221Z,32.93
2019-01-23T13:35:44.319Z,34.90
2019-01-23T13:38:14.479Z,33.07
2019-01-23T13:40:41.728Z,32.73
2019-01-23T13:43:08.971Z,29.83
2019-01-23T13:45:36.216Z,31.40
2019-01-23T13:48:05.443Z,32.67
2019-01-23T13:50:32.679Z,33.27
2019-01-23T13:53:00.031Z,34.07
2019-01-23T13:55:27.358Z,39.17
2019-01-23T13:57:54.611Z,40.20
2019-01-23T14:00:26.130Z,42.80
2019-01-23T14:02:53.434Z,40.00
2019-01-23T14:05:21.338Z,37.67
2019-01-23T14:07:48.675Z,38.67
2019-01-23T14:10:16.060Z,35.63
2019-01-23T14:12:43.412Z,32.23
2019-01-23T14:15:14.620Z,36.27
2019-01-23T14:17:41.851Z,37.07
2019-01-23T14:20:11.131Z,33.90
2019-01-23T14:22:38.366Z,32.43
2019-01-23T14:25:06.118Z,32.97
2019-01-23T14:27:33.368Z,35.10
2019-01-23T14:30:00.791Z,32.83
2019-01-23T14:32:28.015Z,33.13
2019-01-23T14:34:55.276Z,35.03
2019-01-23T14:37:22.744Z,34.17
2019-01-23T14:39:50.000Z,38.07
2019-01-23T14:42:17.631Z,33.90
2019-01-23T14:44:44.902Z,36.50
2019-01-23T14:47:12.249Z,33.40
2019-01-23T14:49:39.467Z,34.83
2019-01-23T14:52:06.892Z,32.87
2019-01-23T14:54:34.150Z,33.80
2019-01-23T14:57:01.471Z,30.50
2019-01-23T14:59:28.727Z,29.77
2019-01-23T15:01:55.976Z,31.43
2019-01-23T15:04:23.227Z,29.57
2019-01-23T15:06:50.682Z,37.87
2019-01-23T15:09:17.928Z,37.07
2019-01-23T15:11:45.168Z,35.70
2019-01-23T15:14:12.399Z,37.63
2019-01-23T15:16:39.632Z,34.63
2019-01-23T15:19:07.226Z,31.03
2019-01-23T15:21:34.653Z,29.57
2019-01-23T15:24:02.102Z,30.83
2019-01-23T15:26:29.395Z,30.07
2019-01-23T15:28:56.713Z,29.93
2019-01-23T15:31:24.109Z,29.63
2019-01-23T15:33:51.592Z,31.13
2019-01-23T15:36:18.864Z,30.13
2019-01-23T15:38:46.251Z,30.53
2019-01-23T15:41:14.511Z,29.80
2019-01-23T15:43:41.887Z,28.60
2019-01-23T15:46:09.140Z,31.20
2019-01-23T15:48:36.384Z,32.17
2019-01-23T15:51:03.627Z,30.10
2019-01-23T15:53:30.870Z,32.10
2019-01-23T15:55:58.655Z,32.70
2019-01-23T15:58:25.901Z,32.00
2019-01-23T16:00:53.148Z,31.73
2019-01-23T16:03:20.453Z,31.43
2019-01-23T16:05:47.681Z,30.13
2019-01-23T16:08:14.908Z,30.93
2019-01-23T16:10:42.323Z,31.17
2019-01-23T16:13:09.635Z,32.57
2019-01-23T16:15:36.888Z,33.57
2019-01-23T16:18:04.272Z,35.60
2019-01-23T16:20:31.511Z,31.77
2019-01-23T16:23:02.379Z,33.00
2019-01-23T16:25:29.824Z,32.87
2019-01-23T16:27:57.139Z,30.60
2019-01-23T16:30:34.773Z,30.63
2019-01-23T16:33:02.439Z,32.63
2019-01-23T16:35:29.762Z,32.87
2019-01-23T16:37:57.039Z,31.87
2019-01-23T16:40:24.276Z,30.37
2019-01-23T16:42:51.781Z,33.10
2019-01-23T16:45:19.095Z,30.70
2019-01-23T16:47:46.583Z,30.07
2019-01-23T16:50:15.048Z,35.93
2019-01-23T16:52:42.717Z,34.57
2019-01-23T16:55:10.503Z,39.73
2019-01-23T16:57:37.844Z,40.13
2019-01-23T17:00:05.526Z,50.97
2019-01-23T17:02:38.657Z,56.50
2019-01-23T17:05:02.263Z,43.60
2019-01-23T17:07:29.582Z,42.50
2019-01-23T17:09:57.072Z,39.50
2019-01-23T17:12:24.318Z,45.50
2019-01-23T17:14:51.542Z,50.13
2019-01-23T17:17:18.775Z,36.43
2019-01-23T17:19:46.104Z,46.93
2019-01-23T17:22:13.363Z,37.57
2019-01-23T17:24:40.711Z,47.57
2019-01-23T17:27:07.944Z,42.17
2019-01-23T17:29:35.209Z,46.10
2019-01-23T17:32:03.213Z,43.03
2019-01-23T17:34:30.477Z,42.83
2019-01-23T17:36:59.395Z,57.73
2019-01-23T17:39:26.671Z,49.67
2019-01-23T17:41:53.924Z,49.17
2019-01-23T17:44:21.395Z,39.93
2019-01-23T17:46:48.867Z,32.60
2019-01-23T17:49:16.796Z,30.80
2019-01-23T17:51:44.178Z,28.50
2019-01-23T17:54:11.442Z,28.40
2019-01-23T17:56:38.709Z,28.87
2019-01-23T17:59:06.083Z,27.57
2019-01-23T18:01:33.320Z,28.40
2019-01-23T18:04:00.610Z,30.73
2019-01-23T18:06:27.985Z,37.60
2019-01-23T18:08:55.249Z,58.13
2019-01-23T18:11:22.593Z,58.53
2019-01-23T18:13:50.563Z,76.73
2019-01-23T18:16:18.081Z,52.57
2019-01-23T18:18:45.771Z,45.90
2019-01-23T18:21:13.599Z,42.63
2019-01-23T18:23:40.891Z,48.37
2019-01-23T18:26:08.289Z,50.87
2019-01-23T18:28:35.551Z,46.20
2019-01-23T18:31:13.835Z,43.43
2019-01-23T18:33:51.251Z,42.13
2019-01-23T18:36:45.716Z,36.27
2019-01-23T18:39:41.696Z,32.63
2019-01-23T18:42:36.850Z,30.33
2019-01-23T18:45:50.669Z,34.30
2019-01-23T18:49:04.749Z,32.13
2019-01-23T18:51:41.136Z,30.63
2019-01-23T18:54:08.931Z,31.23
2019-01-23T18:56:37.062Z,32.77
2019-01-23T18:59:04.599Z,31.60
2019-01-23T19:01:31.851Z,29.67
2019-01-23T19:03:59.217Z,27.57
2019-01-23T19:06:26.567Z,30.40
2019-01-23T19:08:54.095Z,28.97
2019-01-23T19:11:22.431Z,30.67
2019-01-23T19:13:50.142Z,32.50
2019-01-23T19:16:17.389Z,32.37
2019-01-23T19:18:44.695Z,30.73
2019-01-23T19:21:11.922Z,31.93
2019-01-23T19:23:40.513Z,29.43
2019-01-23T19:26:07.797Z,29.73
2019-01-23T19:28:35.083Z,29.00
2019-01-23T19:31:02.404Z,30.50
2019-01-23T19:33:29.653Z,30.00
2019-01-23T19:35:56.906Z,28.67
2019-01-23T19:38:24.587Z,28.60
2019-01-23T19:40:52.029Z,30.07
2019-01-23T19:43:19.292Z,28.37
2019-01-23T19:45:46.619Z,36.93
2019-01-23T19:48:13.957Z,38.13
2019-01-23T19:50:41.208Z,37.93
2019-01-23T19:53:08.456Z,33.43
2019-01-23T19:55:35.712Z,36.10
2019-01-23T19:58:04.496Z,38.67
2019-01-23T20:00:31.915Z,35.37
2019-01-23T20:02:59.141Z,33.27
2019-01-23T20:05:30.621Z,32.17
2019-01-23T20:07:57.961Z,34.20
2019-01-23T20:10:26.041Z,31.60
2019-01-23T20:12:53.367Z,34.43
2019-01-23T20:15:20.887Z,34.03
2019-01-23T20:17:49.899Z,31.47
2019-01-23T20:20:17.131Z,31.70
2019-01-23T20:22:44.519Z,35.03
2019-01-23T20:25:17.647Z,32.70
2019-01-23T20:27:45.172Z,32.00
2019-01-23T20:30:16.472Z,32.20
2019-01-23T20:32:43.845Z,38.80
2019-01-23T20:35:11.088Z,34.63
2019-01-23T20:37:38.685Z,32.87
2019-01-23T20:40:06.735Z,34.27
2019-01-23T20:42:34.056Z,33.60
2019-01-23T20:45:01.295Z,33.23
2019-01-23T20:47:28.576Z,33.40
2019-01-23T20:49:56.288Z,37.80
2019-01-23T20:52:23.744Z,34.93
2019-01-23T20:54:51.104Z,35.53
2019-01-23T20:57:18.703Z,31.63
2019-01-23T20:59:46.024Z,33.93
2019-01-23T21:02:13.246Z,31.17
2019-01-23T21:04:40.554Z,32.43
2019-01-23T21:07:07.844Z,31.47
2019-01-23T21:09:35.089Z,31.70
2019-01-23T21:12:02.356Z,33.80
2019-01-23T21:14:29.635Z,33.80
2019-01-23T21:16:57.473Z,35.87
2019-01-23T21:19:25.256Z,34.43
2019-01-23T21:21:52.641Z,37.57
2019-01-23T21:24:19.899Z,33.57
2019-01-23T21:26:47.211Z,36.47
2019-01-23T21:29:14.768Z,34.23
2019-01-23T21:31:42.116Z,32.60
2019-01-23T21:34:09.392Z,43.13
2019-01-23T21:36:36.679Z,40.67
2019-01-23T21:39:07.026Z,34.63
2019-01-23T21:41:34.251Z,33.27
2019-01-23T21:44:01.852Z,32.90
2019-01-23T21:46:29.259Z,32.30
2019-01-23T21:48:56.495Z,33.67
2019-01-23T21:51:23.756Z,31.30
2019-01-23T21:53:51.088Z,32.10
2019-01-23T21:56:18.325Z,32.07
2019-01-23T21:58:45.591Z,31.40
2019-01-23T22:01:12.828Z,31.87
2019-01-23T22:03:40.291Z,31.27
2019-01-23T22:06:07.540Z,30.40
2019-01-23T22:08:34.810Z,34.23
2019-01-23T22:11:02.036Z,31.73
2019-01-23T22:13:29.391Z,32.17
2019-01-23T22:15:56.797Z,31.90
2019-01-23T22:18:24.439Z,31.93
2019-01-23T22:20:51.858Z,32.10
2019-01-23T22:23:19.283Z,29.47
2019-01-23T22:25:46.685Z,32.73
2019-01-23T22:28:14.161Z,31.43
2019-01-23T22:30:41.388Z,32.13
2019-01-23T22:33:08.636Z,31.97
2019-01-23T22:35:35.889Z,30.37
2019-01-23T22:38:04.440Z,31.33
2019-01-23T22:40:31.717Z,30.80
2019-01-23T22:42:59.042Z,31.63
2019-01-23T22:45:26.292Z,30.17
2019-01-23T22:47:53.546Z,31.47
2019-01-23T22:50:22.466Z,30.33
2019-01-23T22:52:49.924Z,31.60
2019-01-23T22:55:17.447Z,31.90
2019-01-23T22:57:45.325Z,32.37
2019-01-23T23:00:24.267Z,32.97
2019-01-23T23:02:51.669Z,34.10
2019-01-23T23:05:18.990Z,32.57
2019-01-23T23:07:46.325Z,33.30
2019-01-23T23:10:14.203Z,33.83
2019-01-23T23:12:41.443Z,32.77
2019-01-23T23:15:08.896Z,31.23
2019-01-23T23:17:36.124Z,32.13
2019-01-23T23:20:04.246Z,30.90
2019-01-23T23:22:31.511Z,33.07
2019-01-23T23:24:58.766Z,34.90
2019-01-23T23:27:45.556Z,33.43
2019-01-23T23:30:13.759Z,30.73
2019-01-23T23:32:41.076Z,33.30
2019-01-23T23:35:08.353Z,33.23
2019-01-23T23:37:35.604Z,33.57
2019-01-23T23:40:04.699Z,34.27
2019-01-23T23:42:31.971Z,31.97
2019-01-23T23:47:29.270Z,31.87
2019-01-23T23:49:56.517Z,32.63
2019-01-23T23:52:23.740Z,32.73
2019-01-23T23:54:51.003Z,31.67
2019-01-23T23:57:18.299Z,31.13
2019-01-23T23:59:45.523Z,30.33
